sensor_id;sensor_type;location;lat;lon;timestamp;P1;durP1;ratioP1;P2;durP2;ratioP2
19595;SDS011;9945;46.010;8.946;2022-12-29T00:02:22;15.03;;;12.20;;
19595;SDS011;9945;46.010;8.946;2022-12-29T00:04:49;17.60;;;11.90;;
19595;SDS011;9945;46.010;8.946;2022-12-29T00:07:16;14.60;;;12.50;;
19595;SDS011;9945;46.010;8.946;2022-12-29T00:09:43;14.57;;;11.97;;
19595;SDS011;9945;46.010;8.946;2022-12-29T00:12:10;14.70;;;11.90;;
19595;SDS011;9945;46.010;8.946;2022-12-29T00:14:38;13.77;;;11.60;;
19595;SDS011;9945;46.010;8.946;2022-12-29T00:17:22;17.43;;;11.00;;
19595;SDS011;9945;46.010;8.946;2022-12-29T00:19:49;14.13;;;10.77;;
19595;SDS011;9945;46.010;8.946;2022-12-29T00:22:33;14.30;;;11.43;;
19595;SDS011;9945;46.010;8.946;2022-12-29T00:25:23;19.07;;;11.50;;
19595;SDS011;9945;46.010;8.946;2022-12-29T00:28:08;16.43;;;12.00;;
19595;SDS011;9945;46.010;8.946;2022-12-29T00:30:54;18.37;;;11.13;;
19595;SDS011;9945;46.010;8.946;2022-12-29T00:33:42;14.17;;;10.73;;
19595;SDS011;9945;46.010;8.946;2022-12-29T00:36:27;13.03;;;10.87;;
19595;SDS011;9945;46.010;8.946;2022-12-29T00:38:59;15.97;;;11.43;;
19595;SDS011;9945;46.010;8.946;2022-12-29T00:41:44;13.50;;;10.43;;
19595;SDS011;9945;46.010;8.946;2022-12-29T00:44:29;12.40;;;10.17;;
19595;SDS011;9945;46.010;8.946;2022-12-29T00:46:57;13.33;;;10.77;;
19595;SDS011;9945;46.010;8.946;2022-12-29T00:49:27;17.87;;;12.00;;
19595;SDS011;9945;46.010;8.946;2022-12-29T00:51:56;12.60;;;10.80;;
19595;SDS011;9945;46.010;8.946;2022-12-29T00:54:25;13.37;;;11.20;;
19595;SDS011;9945;46.010;8.946;2022-12-29T00:56:52;13.33;;;11.03;;
19595;SDS011;9945;46.010;8.946;2022-12-29T00:59:20;13.30;;;11.20;;
19595;SDS011;9945;46.010;8.946;2022-12-29T01:01:49;20.90;;;14.63;;
19595;SDS011;9945;46.010;8.946;2022-12-29T01:04:18;20.43;;;15.73;;
19595;SDS011;9945;46.010;8.946;2022-12-29T01:06:45;12.97;;;11.27;;
19595;SDS011;9945;46.010;8.946;2022-12-29T01:09:12;14.70;;;11.00;;
19595;SDS011;9945;46.010;8.946;2022-12-29T01:11:57;15.83;;;10.20;;
19595;SDS011;9945;46.010;8.946;2022-12-29T01:14:24;13.77;;;10.97;;
19595;SDS011;9945;46.010;8.946;2022-12-29T01:16:52;16.17;;;11.17;;
19595;SDS011;9945;46.010;8.946;2022-12-29T01:19:21;13.83;;;10.43;;
19595;SDS011;9945;46.010;8.946;2022-12-29T01:21:48;14.70;;;10.80;;
19595;SDS011;9945;46.010;8.946;2022-12-29T01:24:15;12.50;;;10.57;;
19595;SDS011;9945;46.010;8.946;2022-12-29T01:26:43;14.93;;;10.63;;
19595;SDS011;9945;46.010;8.946;2022-12-29T01:29:10;14.97;;;10.27;;
19595;SDS011;9945;46.010;8.946;2022-12-29T01:31:37;13.03;;;10.03;;
19595;SDS011;9945;46.010;8.946;2022-12-29T01:34:04;13.47;;;10.47;;
19595;SDS011;9945;46.010;8.946;2022-12-29T01:36:33;15.47;;;11.40;;
19595;SDS011;9945;46.010;8.946;2022-12-29T01:39:01;14.23;;;10.77;;
19595;SDS011;9945;46.010;8.946;2022-12-29T01:41:28;14.57;;;10.70;;
19595;SDS011;9945;46.010;8.946;2022-12-29T01:43:55;13.10;;;10.90;;
19595;SDS011;9945;46.010;8.946;2022-12-29T01:46:25;13.17;;;10.80;;
19595;SDS011;9945;46.010;8.946;2022-12-29T01:48:55;14.50;;;9.70;;
19595;SDS011;9945;46.010;8.946;2022-12-29T01:51:29;12.63;;;11.13;;
19595;SDS011;9945;46.010;8.946;2022-12-29T01:53:59;17.17;;;11.37;;
19595;SDS011;9945;46.010;8.946;2022-12-29T01:56:31;15.07;;;11.23;;
19595;SDS011;9945;46.010;8.946;2022-12-29T01:59:00;15.40;;;11.57;;
19595;SDS011;9945;46.010;8.946;2022-12-29T02:01:30;14.63;;;11.80;;
19595;SDS011;9945;46.010;8.946;2022-12-29T02:03:57;13.47;;;11.67;;
19595;SDS011;9945;46.010;8.946;2022-12-29T02:06:25;16.43;;;11.53;;
19595;SDS011;9945;46.010;8.946;2022-12-29T02:08:58;13.63;;;10.90;;
19595;SDS011;9945;46.010;8.946;2022-12-29T02:11:26;15.37;;;11.13;;
19595;SDS011;9945;46.010;8.946;2022-12-29T02:13:55;12.57;;;10.37;;
19595;SDS011;9945;46.010;8.946;2022-12-29T02:16:28;13.70;;;10.97;;
19595;SDS011;9945;46.010;8.946;2022-12-29T02:19:05;13.43;;;10.30;;
19595;SDS011;9945;46.010;8.946;2022-12-29T02:21:56;13.63;;;10.83;;
19595;SDS011;9945;46.010;8.946;2022-12-29T02:24:44;14.47;;;10.77;;
19595;SDS011;9945;46.010;8.946;2022-12-29T02:27:44;13.67;;;10.53;;
19595;SDS011;9945;46.010;8.946;2022-12-29T02:30:39;13.37;;;10.73;;
19595;SDS011;9945;46.010;8.946;2022-12-29T02:33:17;12.87;;;10.30;;
19595;SDS011;9945;46.010;8.946;2022-12-29T02:35:52;15.27;;;11.53;;
19595;SDS011;9945;46.010;8.946;2022-12-29T02:38:28;13.03;;;10.23;;
19595;SDS011;9945;46.010;8.946;2022-12-29T02:41:02;16.23;;;11.43;;
19595;SDS011;9945;46.010;8.946;2022-12-29T02:43:35;16.27;;;11.03;;
19595;SDS011;9945;46.010;8.946;2022-12-29T02:46:12;12.43;;;10.67;;
19595;SDS011;9945;46.010;8.946;2022-12-29T02:48:46;13.70;;;11.13;;
19595;SDS011;9945;46.010;8.946;2022-12-29T02:51:21;14.03;;;10.53;;
19595;SDS011;9945;46.010;8.946;2022-12-29T02:53:52;16.80;;;11.40;;
19595;SDS011;9945;46.010;8.946;2022-12-29T02:56:38;15.57;;;10.93;;
19595;SDS011;9945;46.010;8.946;2022-12-29T02:59:04;15.57;;;11.93;;
19595;SDS011;9945;46.010;8.946;2022-12-29T03:01:36;15.40;;;12.17;;
19595;SDS011;9945;46.010;8.946;2022-12-29T03:04:31;15.50;;;11.27;;
19595;SDS011;9945;46.010;8.946;2022-12-29T03:07:07;12.80;;;10.87;;
19595;SDS011;9945;46.010;8.946;2022-12-29T03:09:47;16.60;;;10.80;;
19595;SDS011;9945;46.010;8.946;2022-12-29T03:12:22;14.27;;;10.47;;
19595;SDS011;9945;46.010;8.946;2022-12-29T03:15:14;15.87;;;11.00;;
19595;SDS011;9945;46.010;8.946;2022-12-29T03:18:06;16.97;;;11.43;;
19595;SDS011;9945;46.010;8.946;2022-12-29T03:20:41;15.97;;;11.53;;
19595;SDS011;9945;46.010;8.946;2022-12-29T03:23:15;13.10;;;10.77;;
19595;SDS011;9945;46.010;8.946;2022-12-29T03:25:46;13.70;;;10.67;;
19595;SDS011;9945;46.010;8.946;2022-12-29T03:28:15;16.67;;;11.33;;
19595;SDS011;9945;46.010;8.946;2022-12-29T03:30:47;15.63;;;10.20;;
19595;SDS011;9945;46.010;8.946;2022-12-29T03:33:16;12.23;;;9.83;;
19595;SDS011;9945;46.010;8.946;2022-12-29T03:35:45;14.73;;;10.17;;
19595;SDS011;9945;46.010;8.946;2022-12-29T03:38:14;14.60;;;10.27;;
19595;SDS011;9945;46.010;8.946;2022-12-29T03:40:45;13.37;;;10.00;;
19595;SDS011;9945;46.010;8.946;2022-12-29T03:43:16;13.97;;;9.90;;
19595;SDS011;9945;46.010;8.946;2022-12-29T03:45:44;10.93;;;9.67;;
19595;SDS011;9945;46.010;8.946;2022-12-29T03:48:11;15.03;;;10.17;;
19595;SDS011;9945;46.010;8.946;2022-12-29T03:50:39;12.70;;;9.27;;
19595;SDS011;9945;46.010;8.946;2022-12-29T03:53:06;11.87;;;10.00;;
19595;SDS011;9945;46.010;8.946;2022-12-29T03:55:33;9.60;;;8.60;;
19595;SDS011;9945;46.010;8.946;2022-12-29T03:57:59;12.53;;;8.90;;
19595;SDS011;9945;46.010;8.946;2022-12-29T04:00:26;12.37;;;9.07;;
19595;SDS011;9945;46.010;8.946;2022-12-29T04:02:54;12.63;;;9.23;;
19595;SDS011;9945;46.010;8.946;2022-12-29T04:05:21;10.10;;;8.70;;
19595;SDS011;9945;46.010;8.946;2022-12-29T04:07:49;9.77;;;8.17;;
19595;SDS011;9945;46.010;8.946;2022-12-29T04:10:16;8.87;;;7.97;;
19595;SDS011;9945;46.010;8.946;2022-12-29T04:12:43;8.87;;;7.73;;
19595;SDS011;9945;46.010;8.946;2022-12-29T04:15:11;8.67;;;7.83;;
19595;SDS011;9945;46.010;8.946;2022-12-29T04:17:38;9.43;;;8.30;;
19595;SDS011;9945;46.010;8.946;2022-12-29T04:20:05;9.07;;;7.60;;
19595;SDS011;9945;46.010;8.946;2022-12-29T04:22:58;11.07;;;7.77;;
19595;SDS011;9945;46.010;8.946;2022-12-29T04:25:25;8.20;;;7.40;;
19595;SDS011;9945;46.010;8.946;2022-12-29T04:27:52;10.47;;;7.10;;
19595;SDS011;9945;46.010;8.946;2022-12-29T04:30:19;8.50;;;7.60;;
19595;SDS011;9945;46.010;8.946;2022-12-29T04:32:46;9.40;;;7.93;;
19595;SDS011;9945;46.010;8.946;2022-12-29T04:35:13;9.97;;;8.40;;
19595;SDS011;9945;46.010;8.946;2022-12-29T04:37:40;9.13;;;8.23;;
19595;SDS011;9945;46.010;8.946;2022-12-29T04:40:09;9.00;;;7.73;;
19595;SDS011;9945;46.010;8.946;2022-12-29T04:42:37;8.70;;;6.57;;
19595;SDS011;9945;46.010;8.946;2022-12-29T04:45:04;7.63;;;6.83;;
19595;SDS011;9945;46.010;8.946;2022-12-29T04:47:32;7.07;;;6.20;;
19595;SDS011;9945;46.010;8.946;2022-12-29T04:49:59;6.53;;;5.93;;
19595;SDS011;9945;46.010;8.946;2022-12-29T04:52:25;7.73;;;6.07;;
19595;SDS011;9945;46.010;8.946;2022-12-29T04:54:52;9.37;;;6.43;;
19595;SDS011;9945;46.010;8.946;2022-12-29T04:57:20;6.17;;;5.60;;
19595;SDS011;9945;46.010;8.946;2022-12-29T04:59:47;6.83;;;6.23;;
19595;SDS011;9945;46.010;8.946;2022-12-29T05:02:14;6.37;;;5.77;;
19595;SDS011;9945;46.010;8.946;2022-12-29T05:04:41;6.80;;;6.17;;
19595;SDS011;9945;46.010;8.946;2022-12-29T05:07:08;6.60;;;5.80;;
19595;SDS011;9945;46.010;8.946;2022-12-29T05:09:34;6.70;;;6.00;;
19595;SDS011;9945;46.010;8.946;2022-12-29T05:12:01;8.27;;;5.60;;
19595;SDS011;9945;46.010;8.946;2022-12-29T05:14:30;5.90;;;5.40;;
19595;SDS011;9945;46.010;8.946;2022-12-29T05:16:57;6.30;;;5.70;;
19595;SDS011;9945;46.010;8.946;2022-12-29T05:19:24;5.87;;;5.37;;
19595;SDS011;9945;46.010;8.946;2022-12-29T05:21:50;5.70;;;5.20;;
19595;SDS011;9945;46.010;8.946;2022-12-29T05:24:17;6.20;;;5.60;;
19595;SDS011;9945;46.010;8.946;2022-12-29T05:26:44;6.00;;;5.50;;
19595;SDS011;9945;46.010;8.946;2022-12-29T05:29:11;6.30;;;5.27;;
19595;SDS011;9945;46.010;8.946;2022-12-29T05:31:39;5.83;;;5.27;;
19595;SDS011;9945;46.010;8.946;2022-12-29T05:34:06;6.07;;;5.57;;
19595;SDS011;9945;46.010;8.946;2022-12-29T05:36:33;5.23;;;4.73;;
19595;SDS011;9945;46.010;8.946;2022-12-29T05:39:00;5.47;;;4.93;;
19595;SDS011;9945;46.010;8.946;2022-12-29T05:41:26;6.03;;;5.47;;
19595;SDS011;9945;46.010;8.946;2022-12-29T05:43:53;7.00;;;5.37;;
19595;SDS011;9945;46.010;8.946;2022-12-29T05:46:20;8.27;;;6.10;;
19595;SDS011;9945;46.010;8.946;2022-12-29T05:48:48;6.80;;;5.40;;
19595;SDS011;9945;46.010;8.946;2022-12-29T05:51:15;6.17;;;5.67;;
19595;SDS011;9945;46.010;8.946;2022-12-29T05:53:42;6.40;;;5.80;;
19595;SDS011;9945;46.010;8.946;2022-12-29T05:56:09;7.47;;;6.03;;
19595;SDS011;9945;46.010;8.946;2022-12-29T05:58:36;6.57;;;5.97;;
19595;SDS011;9945;46.010;8.946;2022-12-29T06:01:02;8.63;;;6.83;;
19595;SDS011;9945;46.010;8.946;2022-12-29T06:03:29;6.60;;;6.00;;
19595;SDS011;9945;46.010;8.946;2022-12-29T06:05:58;6.90;;;6.20;;
19595;SDS011;9945;46.010;8.946;2022-12-29T06:08:24;7.97;;;6.83;;
19595;SDS011;9945;46.010;8.946;2022-12-29T06:10:51;7.20;;;6.50;;
19595;SDS011;9945;46.010;8.946;2022-12-29T06:13:18;7.93;;;5.77;;
19595;SDS011;9945;46.010;8.946;2022-12-29T06:15:45;7.53;;;6.67;;
19595;SDS011;9945;46.010;8.946;2022-12-29T06:18:14;8.37;;;7.50;;
19595;SDS011;9945;46.010;8.946;2022-12-29T06:20:41;8.70;;;7.37;;
19595;SDS011;9945;46.010;8.946;2022-12-29T06:23:09;10.97;;;7.70;;
19595;SDS011;9945;46.010;8.946;2022-12-29T06:25:37;7.27;;;6.53;;
19595;SDS011;9945;46.010;8.946;2022-12-29T06:28:04;8.43;;;6.53;;
19595;SDS011;9945;46.010;8.946;2022-12-29T06:30:31;7.43;;;6.57;;
19595;SDS011;9945;46.010;8.946;2022-12-29T06:32:58;6.77;;;6.13;;
19595;SDS011;9945;46.010;8.946;2022-12-29T06:35:25;7.43;;;5.97;;
19595;SDS011;9945;46.010;8.946;2022-12-29T06:37:52;9.30;;;6.93;;
19595;SDS011;9945;46.010;8.946;2022-12-29T06:40:20;9.80;;;6.67;;
19595;SDS011;9945;46.010;8.946;2022-12-29T06:42:48;7.37;;;6.67;;
19595;SDS011;9945;46.010;8.946;2022-12-29T06:45:15;9.47;;;7.20;;
19595;SDS011;9945;46.010;8.946;2022-12-29T06:47:42;8.60;;;7.70;;
19595;SDS011;9945;46.010;8.946;2022-12-29T06:50:08;9.33;;;6.60;;
19595;SDS011;9945;46.010;8.946;2022-12-29T06:52:35;8.17;;;7.00;;
19595;SDS011;9945;46.010;8.946;2022-12-29T06:55:02;7.67;;;6.97;;
19595;SDS011;9945;46.010;8.946;2022-12-29T06:57:33;7.90;;;7.00;;
19595;SDS011;9945;46.010;8.946;2022-12-29T06:59:59;11.63;;;7.03;;
19595;SDS011;9945;46.010;8.946;2022-12-29T07:02:26;7.60;;;6.83;;
19595;SDS011;9945;46.010;8.946;2022-12-29T07:04:53;7.47;;;6.63;;
19595;SDS011;9945;46.010;8.946;2022-12-29T07:07:20;8.47;;;7.13;;
19595;SDS011;9945;46.010;8.946;2022-12-29T07:09:47;8.30;;;6.80;;
19595;SDS011;9945;46.010;8.946;2022-12-29T07:12:14;8.23;;;7.00;;
19595;SDS011;9945;46.010;8.946;2022-12-29T07:14:42;9.03;;;7.23;;
19595;SDS011;9945;46.010;8.946;2022-12-29T07:17:09;10.60;;;7.37;;
19595;SDS011;9945;46.010;8.946;2022-12-29T07:19:36;9.27;;;6.77;;
19595;SDS011;9945;46.010;8.946;2022-12-29T07:22:03;8.17;;;7.37;;
19595;SDS011;9945;46.010;8.946;2022-12-29T07:24:30;7.17;;;6.40;;
19595;SDS011;9945;46.010;8.946;2022-12-29T07:26:56;8.33;;;7.20;;
19595;SDS011;9945;46.010;8.946;2022-12-29T07:29:23;8.77;;;6.90;;
19595;SDS011;9945;46.010;8.946;2022-12-29T07:31:52;7.93;;;7.17;;
19595;SDS011;9945;46.010;8.946;2022-12-29T07:34:18;7.80;;;7.07;;
19595;SDS011;9945;46.010;8.946;2022-12-29T07:36:45;7.67;;;6.90;;
19595;SDS011;9945;46.010;8.946;2022-12-29T07:39:12;8.47;;;6.60;;
19595;SDS011;9945;46.010;8.946;2022-12-29T07:41:39;6.97;;;6.27;;
19595;SDS011;9945;46.010;8.946;2022-12-29T07:44:08;7.03;;;6.37;;
19595;SDS011;9945;46.010;8.946;2022-12-29T07:46:34;8.67;;;7.00;;
19595;SDS011;9945;46.010;8.946;2022-12-29T07:49:03;11.23;;;7.60;;
19595;SDS011;9945;46.010;8.946;2022-12-29T07:51:30;8.43;;;7.40;;
19595;SDS011;9945;46.010;8.946;2022-12-29T07:53:57;8.40;;;7.43;;
19595;SDS011;9945;46.010;8.946;2022-12-29T07:56:25;10.43;;;7.83;;
19595;SDS011;9945;46.010;8.946;2022-12-29T07:58:52;12.73;;;8.13;;
19595;SDS011;9945;46.010;8.946;2022-12-29T08:01:19;8.90;;;7.30;;
19595;SDS011;9945;46.010;8.946;2022-12-29T08:03:46;9.03;;;7.73;;
19595;SDS011;9945;46.010;8.946;2022-12-29T08:06:14;11.77;;;9.83;;
19595;SDS011;9945;46.010;8.946;2022-12-29T08:08:41;18.13;;;11.50;;
19595;SDS011;9945;46.010;8.946;2022-12-29T08:11:08;10.37;;;9.30;;
19595;SDS011;9945;46.010;8.946;2022-12-29T08:13:34;14.37;;;8.83;;
19595;SDS011;9945;46.010;8.946;2022-12-29T08:16:01;12.57;;;8.40;;
19595;SDS011;9945;46.010;8.946;2022-12-29T08:18:28;9.70;;;8.43;;
19595;SDS011;9945;46.010;8.946;2022-12-29T08:20:55;10.63;;;7.63;;
19595;SDS011;9945;46.010;8.946;2022-12-29T08:23:28;12.30;;;9.13;;
19595;SDS011;9945;46.010;8.946;2022-12-29T08:25:56;9.43;;;8.20;;
19595;SDS011;9945;46.010;8.946;2022-12-29T08:28:24;9.23;;;8.27;;
19595;SDS011;9945;46.010;8.946;2022-12-29T08:30:50;11.23;;;8.80;;
19595;SDS011;9945;46.010;8.946;2022-12-29T08:33:17;9.00;;;8.13;;
19595;SDS011;9945;46.010;8.946;2022-12-29T08:35:44;9.30;;;8.40;;
19595;SDS011;9945;46.010;8.946;2022-12-29T08:38:11;9.60;;;7.83;;
19595;SDS011;9945;46.010;8.946;2022-12-29T08:40:39;10.57;;;8.00;;
19595;SDS011;9945;46.010;8.946;2022-12-29T08:43:06;9.93;;;8.40;;
19595;SDS011;9945;46.010;8.946;2022-12-29T08:45:33;8.73;;;7.93;;
19595;SDS011;9945;46.010;8.946;2022-12-29T08:48:00;11.37;;;8.20;;
19595;SDS011;9945;46.010;8.946;2022-12-29T08:50:27;10.90;;;8.37;;
19595;SDS011;9945;46.010;8.946;2022-12-29T08:52:54;9.40;;;8.50;;
19595;SDS011;9945;46.010;8.946;2022-12-29T08:55:21;9.40;;;8.20;;
19595;SDS011;9945;46.010;8.946;2022-12-29T08:57:49;9.23;;;8.23;;
19595;SDS011;9945;46.010;8.946;2022-12-29T09:00:17;8.63;;;7.73;;
19595;SDS011;9945;46.010;8.946;2022-12-29T09:02:45;10.87;;;8.30;;
19595;SDS011;9945;46.010;8.946;2022-12-29T09:05:12;12.20;;;9.63;;
19595;SDS011;9945;46.010;8.946;2022-12-29T09:07:39;13.00;;;8.70;;
19595;SDS011;9945;46.010;8.946;2022-12-29T09:10:06;9.63;;;8.27;;
19595;SDS011;9945;46.010;8.946;2022-12-29T09:12:33;12.03;;;9.30;;
19595;SDS011;9945;46.010;8.946;2022-12-29T09:15:01;11.07;;;7.83;;
19595;SDS011;9945;46.010;8.946;2022-12-29T09:17:29;9.00;;;8.10;;
19595;SDS011;9945;46.010;8.946;2022-12-29T09:20:08;12.23;;;8.03;;
19595;SDS011;9945;46.010;8.946;2022-12-29T09:22:36;10.00;;;7.87;;
19595;SDS011;9945;46.010;8.946;2022-12-29T09:25:03;10.97;;;7.53;;
19595;SDS011;9945;46.010;8.946;2022-12-29T09:27:30;7.73;;;7.03;;
19595;SDS011;9945;46.010;8.946;2022-12-29T09:29:57;9.57;;;8.63;;
19595;SDS011;9945;46.010;8.946;2022-12-29T09:32:26;9.07;;;8.07;;
19595;SDS011;9945;46.010;8.946;2022-12-29T09:34:53;15.20;;;7.70;;
19595;SDS011;9945;46.010;8.946;2022-12-29T09:37:19;11.63;;;8.87;;
19595;SDS011;9945;46.010;8.946;2022-12-29T09:39:46;12.87;;;8.60;;
19595;SDS011;9945;46.010;8.946;2022-12-29T09:42:14;10.33;;;8.80;;
19595;SDS011;9945;46.010;8.946;2022-12-29T09:44:51;14.83;;;8.73;;
19595;SDS011;9945;46.010;8.946;2022-12-29T09:47:28;12.97;;;8.27;;
19595;SDS011;9945;46.010;8.946;2022-12-29T09:49:56;12.70;;;8.43;;
19595;SDS011;9945;46.010;8.946;2022-12-29T09:52:29;14.83;;;8.03;;
19595;SDS011;9945;46.010;8.946;2022-12-29T09:54:59;14.60;;;8.60;;
19595;SDS011;9945;46.010;8.946;2022-12-29T09:57:29;15.30;;;8.90;;
19595;SDS011;9945;46.010;8.946;2022-12-29T10:00:02;17.10;;;9.40;;
19595;SDS011;9945;46.010;8.946;2022-12-29T10:02:36;9.70;;;7.72;;
19595;SDS011;9945;46.010;8.946;2022-12-29T10:05:12;10.95;;;8.95;;
19595;SDS011;9945;46.010;8.946;2022-12-29T10:07:45;17.48;;;12.93;;
19595;SDS011;9945;46.010;8.946;2022-12-29T10:10:25;15.35;;;10.15;;
19595;SDS011;9945;46.010;8.946;2022-12-29T10:13:03;13.38;;;9.00;;
19595;SDS011;9945;46.010;8.946;2022-12-29T10:15:40;9.95;;;8.63;;
19595;SDS011;9945;46.010;8.946;2022-12-29T10:18:24;11.65;;;8.60;;
19595;SDS011;9945;46.010;8.946;2022-12-29T10:21:05;20.30;;;9.00;;
19595;SDS011;9945;46.010;8.946;2022-12-29T10:23:41;13.48;;;8.63;;
19595;SDS011;9945;46.010;8.946;2022-12-29T10:26:12;15.65;;;8.82;;
19595;SDS011;9945;46.010;8.946;2022-12-29T10:28:43;14.00;;;9.18;;
19595;SDS011;9945;46.010;8.946;2022-12-29T10:31:14;12.52;;;7.78;;
19595;SDS011;9945;46.010;8.946;2022-12-29T10:33:46;12.73;;;9.68;;
19595;SDS011;9945;46.010;8.946;2022-12-29T10:36:17;12.15;;;8.85;;
19595;SDS011;9945;46.010;8.946;2022-12-29T10:38:48;16.27;;;9.13;;
19595;SDS011;9945;46.010;8.946;2022-12-29T10:41:25;15.05;;;8.50;;
19595;SDS011;9945;46.010;8.946;2022-12-29T10:43:59;12.32;;;6.28;;
19595;SDS011;9945;46.010;8.946;2022-12-29T10:46:27;8.10;;;5.38;;
19595;SDS011;9945;46.010;8.946;2022-12-29T10:48:59;5.88;;;4.88;;
19595;SDS011;9945;46.010;8.946;2022-12-29T10:51:27;5.97;;;5.45;;
19595;SDS011;9945;46.010;8.946;2022-12-29T10:54:00;8.60;;;5.78;;
19595;SDS011;9945;46.010;8.946;2022-12-29T10:56:32;8.57;;;5.85;;
19595;SDS011;9945;46.010;8.946;2022-12-29T10:59:02;6.65;;;5.95;;
19595;SDS011;9945;46.010;8.946;2022-12-29T11:01:37;17.45;;;8.02;;
19595;SDS011;9945;46.010;8.946;2022-12-29T11:04:18;11.68;;;8.95;;
19595;SDS011;9945;46.010;8.946;2022-12-29T11:06:53;13.20;;;8.40;;
19595;SDS011;9945;46.010;8.946;2022-12-29T11:09:21;13.02;;;7.40;;
19595;SDS011;9945;46.010;8.946;2022-12-29T11:11:50;8.75;;;6.72;;
19595;SDS011;9945;46.010;8.946;2022-12-29T11:14:18;7.25;;;5.22;;
19595;SDS011;9945;46.010;8.946;2022-12-29T11:16:48;7.75;;;5.43;;
19595;SDS011;9945;46.010;8.946;2022-12-29T11:19:25;12.65;;;5.40;;
19595;SDS011;9945;46.010;8.946;2022-12-29T11:21:54;11.25;;;5.45;;
19595;SDS011;9945;46.010;8.946;2022-12-29T11:24:22;9.85;;;5.80;;
19595;SDS011;9945;46.010;8.946;2022-12-29T11:26:50;7.10;;;5.18;;
19595;SDS011;9945;46.010;8.946;2022-12-29T11:29:26;7.70;;;5.28;;
19595;SDS011;9945;46.010;8.946;2022-12-29T11:31:54;8.55;;;5.28;;
19595;SDS011;9945;46.010;8.946;2022-12-29T11:34:26;8.57;;;6.13;;
19595;SDS011;9945;46.010;8.946;2022-12-29T11:36:58;13.13;;;6.10;;
19595;SDS011;9945;46.010;8.946;2022-12-29T11:39:30;8.90;;;6.10;;
19595;SDS011;9945;46.010;8.946;2022-12-29T11:41:59;5.93;;;5.15;;
19595;SDS011;9945;46.010;8.946;2022-12-29T11:44:29;9.25;;;6.30;;
19595;SDS011;9945;46.010;8.946;2022-12-29T11:47:02;8.48;;;7.03;;
19595;SDS011;9945;46.010;8.946;2022-12-29T11:49:31;7.68;;;6.43;;
19595;SDS011;9945;46.010;8.946;2022-12-29T11:51:58;7.05;;;5.70;;
19595;SDS011;9945;46.010;8.946;2022-12-29T11:54:27;8.13;;;6.18;;
19595;SDS011;9945;46.010;8.946;2022-12-29T11:56:56;6.75;;;5.55;;
19595;SDS011;9945;46.010;8.946;2022-12-29T11:59:25;7.68;;;5.78;;
19595;SDS011;9945;46.010;8.946;2022-12-29T12:02:08;5.28;;;4.80;;
19595;SDS011;9945;46.010;8.946;2022-12-29T12:04:45;6.40;;;5.07;;
19595;SDS011;9945;46.010;8.946;2022-12-29T12:07:17;5.55;;;5.05;;
19595;SDS011;9945;46.010;8.946;2022-12-29T12:09:49;4.90;;;4.50;;
19595;SDS011;9945;46.010;8.946;2022-12-29T12:12:21;5.30;;;4.80;;
19595;SDS011;9945;46.010;8.946;2022-12-29T12:14:54;6.65;;;4.80;;
19595;SDS011;9945;46.010;8.946;2022-12-29T12:17:25;16.10;;;6.90;;
19595;SDS011;9945;46.010;8.946;2022-12-29T12:20:04;14.00;;;7.38;;
19595;SDS011;9945;46.010;8.946;2022-12-29T12:22:44;9.45;;;7.13;;
19595;SDS011;9945;46.010;8.946;2022-12-29T12:25:17;11.90;;;6.97;;
19595;SDS011;9945;46.010;8.946;2022-12-29T12:27:48;7.47;;;5.40;;
19595;SDS011;9945;46.010;8.946;2022-12-29T12:30:19;8.98;;;6.53;;
19595;SDS011;9945;46.010;8.946;2022-12-29T12:32:48;8.90;;;7.03;;
19595;SDS011;9945;46.010;8.946;2022-12-29T12:35:25;7.60;;;6.45;;
19595;SDS011;9945;46.010;8.946;2022-12-29T12:38:06;8.25;;;7.40;;
19595;SDS011;9945;46.010;8.946;2022-12-29T12:40:50;10.30;;;6.75;;
19595;SDS011;9945;46.010;8.946;2022-12-29T12:43:32;7.18;;;6.47;;
19595;SDS011;9945;46.010;8.946;2022-12-29T12:49:21;7.00;;;6.30;;
19595;SDS011;9945;46.010;8.946;2022-12-29T12:52:07;7.38;;;6.30;;
19595;SDS011;9945;46.010;8.946;2022-12-29T12:54:45;5.85;;;5.20;;
19595;SDS011;9945;46.010;8.946;2022-12-29T12:57:28;5.88;;;5.22;;
19595;SDS011;9945;46.010;8.946;2022-12-29T13:00:09;5.82;;;5.30;;
19595;SDS011;9945;46.010;8.946;2022-12-29T13:02:41;6.70;;;5.53;;
19595;SDS011;9945;46.010;8.946;2022-12-29T13:05:24;13.38;;;6.70;;
19595;SDS011;9945;46.010;8.946;2022-12-29T13:08:04;8.13;;;7.10;;
19595;SDS011;9945;46.010;8.946;2022-12-29T13:10:50;10.02;;;7.68;;
19595;SDS011;9945;46.010;8.946;2022-12-29T13:13:27;10.60;;;7.43;;
19595;SDS011;9945;46.010;8.946;2022-12-29T13:16:13;12.10;;;7.30;;
19595;SDS011;9945;46.010;8.946;2022-12-29T13:18:48;10.60;;;7.20;;
19595;SDS011;9945;46.010;8.946;2022-12-29T13:21:28;11.57;;;7.13;;
19595;SDS011;9945;46.010;8.946;2022-12-29T13:24:04;7.78;;;7.07;;
19595;SDS011;9945;46.010;8.946;2022-12-29T13:26:40;7.95;;;6.60;;
19595;SDS011;9945;46.010;8.946;2022-12-29T13:29:12;6.85;;;5.97;;
19595;SDS011;9945;46.010;8.946;2022-12-29T13:31:47;7.47;;;6.40;;
19595;SDS011;9945;46.010;8.946;2022-12-29T13:34:21;8.05;;;5.72;;
19595;SDS011;9945;46.010;8.946;2022-12-29T13:36:58;10.40;;;6.35;;
19595;SDS011;9945;46.010;8.946;2022-12-29T13:39:30;6.97;;;5.57;;
19595;SDS011;9945;46.010;8.946;2022-12-29T13:42:00;7.63;;;5.93;;
19595;SDS011;9945;46.010;8.946;2022-12-29T13:44:31;7.93;;;5.90;;
19595;SDS011;9945;46.010;8.946;2022-12-29T13:47:01;6.93;;;5.82;;
19595;SDS011;9945;46.010;8.946;2022-12-29T13:49:38;10.93;;;5.97;;
19595;SDS011;9945;46.010;8.946;2022-12-29T13:52:08;19.07;;;12.33;;
19595;SDS011;9945;46.010;8.946;2022-12-29T13:54:45;8.07;;;7.27;;
19595;SDS011;9945;46.010;8.946;2022-12-29T13:57:31;7.63;;;6.20;;
19595;SDS011;9945;46.010;8.946;2022-12-29T14:00:10;10.03;;;6.70;;
19595;SDS011;9945;46.010;8.946;2022-12-29T14:02:42;8.60;;;6.50;;
19595;SDS011;9945;46.010;8.946;2022-12-29T14:05:27;9.90;;;6.40;;
19595;SDS011;9945;46.010;8.946;2022-12-29T14:07:59;9.77;;;6.03;;
19595;SDS011;9945;46.010;8.946;2022-12-29T14:10:30;8.30;;;5.97;;
19595;SDS011;9945;46.010;8.946;2022-12-29T14:13:02;9.03;;;6.20;;
19595;SDS011;9945;46.010;8.946;2022-12-29T14:15:31;10.23;;;6.60;;
19595;SDS011;9945;46.010;8.946;2022-12-29T14:18:10;10.67;;;6.20;;
19595;SDS011;9945;46.010;8.946;2022-12-29T14:20:46;9.63;;;6.70;;
19595;SDS011;9945;46.010;8.946;2022-12-29T14:23:26;7.60;;;6.47;;
19595;SDS011;9945;46.010;8.946;2022-12-29T14:26:13;11.70;;;7.00;;
19595;SDS011;9945;46.010;8.946;2022-12-29T14:28:43;8.37;;;7.40;;
19595;SDS011;9945;46.010;8.946;2022-12-29T14:36:57;7.90;;;6.53;;
19595;SDS011;9945;46.010;8.946;2022-12-29T14:39:33;12.00;;;6.60;;
19595;SDS011;9945;46.010;8.946;2022-12-29T14:42:06;10.33;;;6.63;;
19595;SDS011;9945;46.010;8.946;2022-12-29T14:44:45;7.60;;;6.27;;
19595;SDS011;9945;46.010;8.946;2022-12-29T14:47:16;8.33;;;7.13;;
19595;SDS011;9945;46.010;8.946;2022-12-29T14:49:46;14.27;;;7.30;;
19595;SDS011;9945;46.010;8.946;2022-12-29T14:52:15;9.90;;;6.63;;
19595;SDS011;9945;46.010;8.946;2022-12-29T14:54:46;8.87;;;6.30;;
19595;SDS011;9945;46.010;8.946;2022-12-29T14:57:20;11.93;;;7.03;;
19595;SDS011;9945;46.010;8.946;2022-12-29T14:59:52;9.17;;;6.80;;
19595;SDS011;9945;46.010;8.946;2022-12-29T15:02:25;8.63;;;6.63;;
19595;SDS011;9945;46.010;8.946;2022-12-29T15:04:58;11.53;;;6.23;;
19595;SDS011;9945;46.010;8.946;2022-12-29T15:07:27;8.40;;;6.47;;
19595;SDS011;9945;46.010;8.946;2022-12-29T15:09:56;9.43;;;6.63;;
19595;SDS011;9945;46.010;8.946;2022-12-29T15:12:32;10.23;;;7.47;;
19595;SDS011;9945;46.010;8.946;2022-12-29T15:15:13;9.53;;;6.63;;
19595;SDS011;9945;46.010;8.946;2022-12-29T15:17:44;11.60;;;7.27;;
19595;SDS011;9945;46.010;8.946;2022-12-29T15:20:17;11.07;;;6.47;;
19595;SDS011;9945;46.010;8.946;2022-12-29T15:22:49;9.07;;;6.83;;
19595;SDS011;9945;46.010;8.946;2022-12-29T15:25:20;8.00;;;7.20;;